Sayward, Canada
Current Conditions -  °F | °C
As of 12:00 PM on Thursday 23 Oct 2014 (Local Time) from CYBL Reporting Station
Light Rain Light Rain  
Wind Chill: 44°   Ceiling: 1500
Heat Index: 46°   Visibility: 7mi
Dew Point: 45°   Wind: 6mph
Humidity: 93%   Direction: 360°N
Pressure: 29.7"   Gusts: NA
Location:  50.35°N, 125.92°W
Report Text: CYBL 231900Z 36005KT 7SM -RA SCT005 BKN015 OVC040 08/07 A2970 RMK SF3SC2SC3 SLP060
Loading
Personal Weather Stations






























Interactive Weather Map
Tropical Storm Tracking
New forecast layout! Learn more

10-Day Weather Forecast

Advertisements
Track Severe Weather on mobile